Nearby METAR Reports

 

EGEO - Oban, United Kingdom
Distance from station: SSW 18mi, 30km
Updated: 22/01/2019 11:20
Light snow, Showers, Rain, Partly cloudy
Light snow, Showers, Rain, Partly cloudy
 Wind from W
Wind: W 12 mph , 19 km/h
Temperature: 1°C
Wind Chill: -4°C
Dew Point: 1°C
Humidity: 100%
Barometer: 996 hPa
Summary: Light snow, Showers, Rain
Clouds: Partly cloudy
Visibility: 6 miles , 9 km
Cloud details: Few Clouds 152 m
Partly cloudy 244 m
Partly cloudy 366 m
2019/01/22 11:20 EGEO 221120Z 28010KT 9000 -SHSNRA FEW005 SCT008 SCT012CB 01/01 Q0996 R88/5904//
EGPU - Tiree, United Kingdom
Distance from station: WSW 64mi, 103km
Updated: 22/01/2019 11:20
Nearby showers, Partly cloudy
Nearby showers, Partly cloudy
 Wind from WNW
Wind: WNW 17 mph , 28 km/h
Temperature: 3°C
Wind Chill: -3°C
Dew Point: 0°C
Humidity: 81%
Barometer: 995 hPa
Summary: Nearby Showers
Clouds: Partly cloudy
Visibility: 6 miles , 10 km
Cloud details: Few Clouds 549 m
Partly cloudy 1494 m
2019/01/22 11:20 EGPU 221120Z 30015KT 9999 VCSH FEW018 SCT049 03/00 Q0995
EGPF - Glasgow, United Kingdom
Distance from station: SSE 66mi, 107km
Updated: 22/01/2019 11:20
Mostly cloudy
Mostly cloudy
 Wind from varies
Wind: varies 2 mph , 4 km/h
Temperature: 1°C
Dew Point: 0°C
Humidity: 93%
Barometer: 996 hPa
Clouds: Mostly cloudy
Visibility: 6 miles , 10 km
Cloud details: Mostly cloudy 396 m
Mostly cloudy 853 m
2019/01/22 11:20 EGPF 221120Z AUTO VRB02KT 9999 BKN013 BKN028 01/00 Q0996
 
EGPE - Inverness, United Kingdom
Distance from station: NE 71mi, 114km
Updated: 22/01/2019 11:20
Few Clouds
Few Clouds
 Wind from SW
Wind: SW 9 mph , 15 km/h
Temperature: 1°C
Wind Chill: -3°C
Dew Point: -1°C
Humidity: 87%
Barometer: 995 hPa
Clouds: Few Clouds
Visibility: 6 miles , 10 km
Cloud details: Few Clouds 183 m
Few Clouds 762 m
2019/01/22 11:20 EGPE 221120Z 22008KT 9999 FEW006 FEW025TCU 01/M01 Q0995
EGPI - Islay/Port Ellen, United Kingdom
Distance from station: SSW 81mi, 131km
Updated: 22/01/2019 11:20
Mostly cloudy
Mostly cloudy
 Wind from W
Wind: W 16 mph , 26 km/h
Temperature: 4°C
Wind Chill: -1°C
Dew Point: 1°C
Humidity: 81%
Barometer: 996 hPa
Clouds: Mostly cloudy
Visibility: 6 miles , 10 km
Cloud details: Few Clouds 762 m
Mostly cloudy 1097 m
2019/01/22 11:20 EGPI 221120Z 27014KT 250V320 9999 FEW025CB BKN036 04/01 Q0996
EGPN - Dundee/Riverside, United Kingdom
Distance from station: E 86mi, 138km
Updated: 22/01/2019 11:20
Partly cloudy
Partly cloudy
 Wind from WNW
Wind: WNW 2 mph , 4 km/h
Temperature: 2°C
Dew Point: 0°C
Humidity: 87%
Barometer: 996 hPa
Clouds: Partly cloudy
Visibility: 5 miles , 8 km
Cloud details: Few Clouds 305 m
Partly cloudy 762 m
2019/01/22 11:20 EGPN 221120Z 30002KT 8000 FEW010 SCT025 02/00 Q0996
 
EGPK - Prestwick, United Kingdom
Distance from station: SSE 88mi, 141km
Updated: 22/01/2019 11:20
Light rain, Showers, Partly cloudy
Light rain, Showers, Partly cloudy
 Wind from W
Wind: W 7 mph , 11 km/h
Temperature: 3°C
Wind Chill: 0°C
Dew Point: 2°C
Humidity: 93%
Barometer: 997 hPa
Summary: Light rain, Showers
Clouds: Partly cloudy
Visibility: 6 miles , 10 km
Cloud details: Few Clouds 335 m
Partly cloudy 1067 m
2019/01/22 11:20 EGPK 221120Z 26006KT 9999 -SHRA FEW011 SCT035 03/02 Q0997
EGPH - Edinburgh, United Kingdom
Distance from station: SE 89mi, 143km
Updated: 22/01/2019 11:20
Light snow, Showers, Partly cloudy
Light snow, Showers, Partly cloudy
 Wind from SW
Wind: SW 5 mph , 7 km/h
Temperature: 1°C
Wind Chill: -2°C
Dew Point: 1°C
Humidity: 100%
Barometer: 996 hPa
Summary: Light snow, Showers
Clouds: Partly cloudy
Visibility: 6 miles , 10 km
Cloud details: Few Clouds 213 m
Partly cloudy 488 m
2019/01/22 11:20 EGPH 221120Z 22004KT 9999 -SHSN FEW007 SCT016 01/01 Q0996
EGQK - RAF Kinloss, United Kingdom
Distance from station: NE 90mi, 144km
Updated: 22/01/2019 10:50
Clear
Clear
 Wind from SW
Wind: SW 7 mph , 11 km/h
Temperature: 1°C
Wind Chill: -2°C
Dew Point: -2°C
Humidity: 81%
Barometer: 994 hPa
Clouds: Clear
Visibility: 6 miles , 10 km
2019/01/22 10:50 EGQK 221050Z AUTO 22006KT 9999 NCD 01/M02 Q0994
 
EGEC - Campbeltown, United Kingdom
Distance from station: S 90mi, 145km
Updated: 22/01/2019 11:20
Partly cloudy
Partly cloudy
 Wind from NW
Wind: NW 13 mph , 20 km/h
Temperature: 3°C
Wind Chill: -2°C
Dew Point: 0°C
Humidity: 81%
Barometer: 996 hPa
Clouds: Partly cloudy
Visibility: 6 miles , 10 km
Cloud details: Partly cloudy 823 m
2019/01/22 11:20 EGEC 221120Z 31011KT 9999 SCT027 03/M00 Q0996
EGQA - Tain Range, United Kingdom
Distance from station: NNE 91mi, 146km
Updated: 22/01/2019 10:50
Few Clouds
Few Clouds
 Wind from calm
Wind: Calm
Clouds: Few Clouds
Visibility: 6 miles , 10 km
Cloud details: Few Clouds 671 m
2019/01/22 10:50 EGQA 221050Z 00000KT 9999 FEW022 01/// Q0995 BLU
EGQL - RAF Leuchars, United Kingdom
Distance from station: ESE 93mi, 149km
Updated: 22/01/2019 10:50
Clear
Clear
 Wind from W
Wind: W 13 mph , 20 km/h
Temperature: 1°C
Wind Chill: -4°C
Dew Point: 0°C
Humidity: 93%
Barometer: 995 hPa
Summary: Clear
Visibility: greater than 7 miles , 10 km
2019/01/22 10:50 EGQL 221050Z 26011KT CAVOK 01/M00 Q0995 BLU
 
EGPL - Benbecula, United Kingdom
Distance from station: WNW 96mi, 154km
Updated: 22/01/2019 11:20
Nearby showers, Partly cloudy
Nearby showers, Partly cloudy
 Wind from SW
Wind: SW 2 mph , 4 km/h
Temperature: 2°C
Dew Point: -1°C
Humidity: 81%
Barometer: 994 hPa
Summary: Nearby Showers
Clouds: Partly cloudy
Visibility: 6 miles , 10 km
Cloud details: Partly cloudy 488 m
2019/01/22 11:20 EGPL 221120Z 23002KT 9999 VCSH SCT016CB 02/M01 Q0994
EGQS - RAF Lossiemouth, United Kingdom
Distance from station: NE 99mi, 160km
Updated: 22/01/2019 10:50
Few Clouds
Few Clouds
 Wind from WSW
Wind: WSW 9 mph , 15 km/h
Temperature: 1°C
Wind Chill: -3°C
Dew Point: -2°C
Humidity: 81%
Barometer: 994 hPa
Clouds: Few Clouds
Visibility: 6 miles , 10 km
Cloud details: Few Clouds 427 m
2019/01/22 10:50 EGQS 221050Z 25008KT 9999 FEW014 01/M02 Q0994 BLU NOSIG
EGPO - Stornoway, United Kingdom
Distance from station: NNW 111mi, 179km
Updated: 22/01/2019 11:20
Nearby showers, Partly cloudy
Nearby showers, Partly cloudy
 Wind from WSW
Wind: WSW 7 mph , 11 km/h
Temperature: 1°C
Wind Chill: -2°C
Dew Point: 0°C
Humidity: 93%
Barometer: 994 hPa
Summary: Nearby Showers
Clouds: Partly cloudy
Visibility: 6 miles , 10 km
Cloud details: Few Clouds 244 m
Partly cloudy 366 m
2019/01/22 11:20 EGPO 221120Z 24006KT 190V290 9999 VCSH FEW008 SCT012CB 01/M00 Q0994 R18/5901//
 
EGPD - Aberdeen/Dyce, United Kingdom
Distance from station: ENE 118mi, 190km
Updated: 22/01/2019 11:20
Clear
Clear
 Wind from W
Wind: W 10 mph , 17 km/h
Temperature: 2°C
Wind Chill: -2°C
Dew Point: -2°C
Humidity: 75%
Barometer: 994 hPa
Clouds: Clear
Visibility: 6 miles , 10 km
2019/01/22 11:20 EGPD 221120Z AUTO 26009KT 9999 NCD 02/M02 Q0994 NOSIG
EGAE - Eglinton/Londond, United Kingdom
Distance from station: SSW 138mi, 222km
Updated: 22/01/2019 11:20
Few Clouds
Few Clouds
 Wind from SSW
Wind: SSW 9 mph , 15 km/h
Temperature: 3°C
Wind Chill: -1°C
Dew Point: 1°C
Humidity: 87%
Barometer: 998 hPa
Clouds: Few Clouds
Visibility: 6 miles , 10 km
Cloud details: Few Clouds 305 m
2019/01/22 11:20 EGAE 221120Z 20008KT 9999 FEW010 03/01 Q0998
EGPC - Wick, United Kingdom
Distance from station: NNE 144mi, 232km
Updated: 22/01/2019 11:20
Light rain, Few clouds
Light rain, Few clouds
 Wind from WNW
Wind: WNW 13 mph , 20 km/h
Temperature: 1°C
Wind Chill: -4°C
Dew Point: 0°C
Humidity: 93%
Barometer: 993 hPa
Summary: Light rain
Clouds: Few Clouds
Visibility: 6 miles , 10 km
Cloud details: Few Clouds 274 m
2019/01/22 11:20 EGPC 221120Z 29011KT 9999 -RA FEW009 01/M00 Q0993

Metar display script from Saratoga-Weather.org